createdAt,value
2018-12-09T00:00:34.669Z,9.20
2018-12-09T00:03:03.277Z,9.20
2018-12-09T00:05:31.810Z,9.20
2018-12-09T00:08:00.265Z,9.20
2018-12-09T00:10:28.742Z,9.30
2018-12-09T00:12:57.271Z,9.30
2018-12-09T00:15:25.723Z,9.30
2018-12-09T00:17:54.244Z,9.30
2018-12-09T00:20:22.746Z,9.30
2018-12-09T00:22:51.224Z,9.30
2018-12-09T00:25:19.776Z,9.30
2018-12-09T00:27:48.225Z,9.30
2018-12-09T00:30:16.694Z,9.20
2018-12-09T00:32:45.172Z,9.30
2018-12-09T00:35:13.661Z,9.30
2018-12-09T00:37:42.086Z,9.30
2018-12-09T00:40:10.541Z,9.30
2018-12-09T00:42:43.512Z,9.20
2018-12-09T00:45:09.680Z,9.20
2018-12-09T00:47:38.171Z,9.20
2018-12-09T00:50:06.913Z,9.20
2018-12-09T00:52:35.339Z,9.20
2018-12-09T00:55:03.844Z,9.20
2018-12-09T00:57:32.296Z,9.20
2018-12-09T01:00:00.803Z,9.20
2018-12-09T01:02:29.335Z,9.20
2018-12-09T01:04:57.806Z,9.20
2018-12-09T01:07:26.287Z,9.20
2018-12-09T01:09:54.772Z,9.20
2018-12-09T01:12:23.274Z,9.20
2018-12-09T01:14:51.812Z,9.20
2018-12-09T01:17:20.269Z,9.20
2018-12-09T01:19:48.718Z,9.20
2018-12-09T01:22:17.170Z,9.10
2018-12-09T01:24:45.612Z,9.10
2018-12-09T01:27:15.133Z,9.10
2018-12-09T01:29:43.761Z,9.10
2018-12-09T01:32:12.227Z,9.10
2018-12-09T01:34:40.747Z,9.10
2018-12-09T01:37:09.228Z,9.10
2018-12-09T01:39:38.504Z,9.10
2018-12-09T01:42:07.076Z,9.00
2018-12-09T01:44:35.550Z,9.00
2018-12-09T01:47:04.489Z,9.00
2018-12-09T01:49:33.007Z,9.00
2018-12-09T01:52:01.603Z,9.00
2018-12-09T01:54:30.115Z,9.00
2018-12-09T01:56:58.557Z,9.00
2018-12-09T01:59:26.996Z,9.00
2018-12-09T02:01:55.475Z,8.90
2018-12-09T02:04:23.995Z,8.90
2018-12-09T02:06:52.517Z,9.00
2018-12-09T02:09:20.996Z,9.00
2018-12-09T02:11:49.476Z,9.00
2018-12-09T02:14:18.341Z,8.90
2018-12-09T02:16:46.891Z,8.90
2018-12-09T02:19:22.535Z,8.90
2018-12-09T02:21:51.366Z,8.90
2018-12-09T02:24:20.533Z,8.90
2018-12-09T02:26:49.232Z,8.90
2018-12-09T02:29:17.683Z,9.00
2018-12-09T02:31:46.121Z,8.90
2018-12-09T02:34:14.668Z,8.90
2018-12-09T02:36:43.153Z,8.90
2018-12-09T02:39:12.480Z,8.90
2018-12-09T02:41:41.243Z,8.90
2018-12-09T02:44:09.801Z,8.90
2018-12-09T02:46:38.615Z,8.90
2018-12-09T02:49:07.101Z,8.90
2018-12-09T02:51:35.715Z,8.90
2018-12-09T02:54:04.372Z,8.90
2018-12-09T02:56:33.052Z,8.70
2018-12-09T02:59:01.536Z,8.70
2018-12-09T03:01:29.980Z,8.60
2018-12-09T03:03:58.567Z,8.60
2018-12-09T03:06:27.091Z,8.60
2018-12-09T03:08:55.560Z,8.60
2018-12-09T03:11:24.003Z,8.50
2018-12-09T03:13:52.576Z,8.50
2018-12-09T03:16:21.060Z,8.60
2018-12-09T03:18:49.500Z,8.60
2018-12-09T03:21:17.951Z,8.60
2018-12-09T03:23:46.537Z,8.60
2018-12-09T03:26:15.832Z,8.60
2018-12-09T03:28:44.405Z,8.60
2018-12-09T03:31:13.369Z,8.60
2018-12-09T03:33:41.945Z,8.60
2018-12-09T03:36:10.409Z,8.70
2018-12-09T03:38:38.867Z,8.70
2018-12-09T03:41:07.324Z,8.60
2018-12-09T03:43:35.807Z,8.70
2018-12-09T03:46:04.298Z,8.60
2018-12-09T03:48:32.795Z,8.60
2018-12-09T03:51:01.274Z,8.60
2018-12-09T03:53:29.759Z,8.60
2018-12-09T03:55:58.211Z,8.60
2018-12-09T03:58:26.689Z,8.60
2018-12-09T04:00:55.178Z,8.60
2018-12-09T04:03:23.622Z,8.60
2018-12-09T04:05:52.584Z,8.60
2018-12-09T04:08:21.157Z,8.60
2018-12-09T04:10:49.668Z,8.60
2018-12-09T04:13:18.163Z,8.60
2018-12-09T04:15:46.631Z,8.60
2018-12-09T04:18:15.100Z,8.70
2018-12-09T04:20:43.536Z,8.70
2018-12-09T04:23:12.115Z,8.70
2018-12-09T04:25:40.601Z,8.70
2018-12-09T04:28:09.152Z,8.70
2018-12-09T04:30:37.594Z,8.70
2018-12-09T04:33:06.060Z,8.70
2018-12-09T04:35:34.700Z,8.70
2018-12-09T04:38:03.168Z,8.70
2018-12-09T04:40:32.063Z,8.70
2018-12-09T04:43:00.544Z,8.70
2018-12-09T04:45:29.991Z,8.70
2018-12-09T04:47:58.487Z,8.70
2018-12-09T04:50:27.095Z,8.70
2018-12-09T04:52:55.575Z,8.70
2018-12-09T04:55:24.026Z,8.80
2018-12-09T04:57:52.532Z,8.70
2018-12-09T05:00:32.823Z,8.80
2018-12-09T05:03:01.323Z,8.80
2018-12-09T05:05:29.856Z,8.80
2018-12-09T05:07:58.332Z,8.70
2018-12-09T05:10:26.761Z,8.70
2018-12-09T05:12:57.347Z,8.70
2018-12-09T05:15:26.173Z,8.60
2018-12-09T05:17:54.750Z,8.60
2018-12-09T05:20:23.220Z,8.60
2018-12-09T05:22:51.680Z,8.60
2018-12-09T05:25:20.157Z,8.60
2018-12-09T05:27:48.671Z,8.60
2018-12-09T05:30:17.189Z,8.60
2018-12-09T05:32:45.627Z,8.60
2018-12-09T05:35:14.093Z,8.60
2018-12-09T05:37:42.585Z,8.60
2018-12-09T05:40:12.021Z,8.60
2018-12-09T05:42:40.780Z,8.60
2018-12-09T05:45:09.338Z,8.60
2018-12-09T05:47:38.336Z,8.70
2018-12-09T05:50:07.118Z,8.70
2018-12-09T05:52:35.566Z,8.70
2018-12-09T05:55:04.747Z,8.60
2018-12-09T05:57:33.252Z,8.70
2018-12-09T06:00:02.123Z,8.60
2018-12-09T06:02:41.917Z,8.70
2018-12-09T06:05:10.531Z,8.70
2018-12-09T06:07:39.056Z,8.70
2018-12-09T06:10:07.721Z,8.70
2018-12-09T06:12:36.260Z,8.70
2018-12-09T06:15:05.043Z,8.60
2018-12-09T06:17:33.523Z,8.60
2018-12-09T06:20:02.129Z,8.60
2018-12-09T06:22:30.605Z,8.60
2018-12-09T06:24:59.074Z,8.60
2018-12-09T06:27:27.567Z,8.60
2018-12-09T06:29:56.007Z,8.60
2018-12-09T06:32:25.175Z,8.60
2018-12-09T06:34:53.656Z,8.60
2018-12-09T06:37:22.120Z,8.60
2018-12-09T06:39:50.573Z,8.50
2018-12-09T06:42:19.068Z,8.60
2018-12-09T06:44:48.066Z,8.50
2018-12-09T06:47:16.545Z,8.60
2018-12-09T06:49:45.014Z,8.60
2018-12-09T06:52:13.540Z,8.60
2018-12-09T06:54:42.059Z,8.60
2018-12-09T06:57:10.923Z,8.50
2018-12-09T06:59:39.423Z,8.60
2018-12-09T07:02:07.906Z,8.50
2018-12-09T07:04:36.395Z,8.50
2018-12-09T07:07:04.866Z,8.60
2018-12-09T07:09:33.372Z,8.50
2018-12-09T07:12:01.813Z,8.60
2018-12-09T07:14:30.343Z,8.50
2018-12-09T07:16:58.925Z,8.60
2018-12-09T07:19:27.400Z,8.60
2018-12-09T07:21:56.293Z,8.60
2018-12-09T07:24:24.831Z,8.60
2018-12-09T07:26:53.313Z,8.60
2018-12-09T07:29:21.999Z,8.50
2018-12-09T07:31:50.475Z,8.50
2018-12-09T07:34:19.428Z,8.60
2018-12-09T07:36:47.980Z,8.50
2018-12-09T07:39:16.506Z,8.50
2018-12-09T07:41:44.977Z,8.40
2018-12-09T07:44:13.550Z,8.40
2018-12-09T07:46:42.522Z,8.40
2018-12-09T07:49:11.149Z,8.40
2018-12-09T07:51:39.956Z,8.40
2018-12-09T07:54:08.502Z,8.40
2018-12-09T07:56:36.983Z,8.40
2018-12-09T07:59:09.772Z,8.40
2018-12-09T08:01:39.048Z,8.50
2018-12-09T08:04:08.748Z,8.50
2018-12-09T08:06:37.235Z,8.50
2018-12-09T08:09:06.419Z,8.50
2018-12-09T08:11:34.945Z,8.50
2018-12-09T08:14:03.449Z,8.50
2018-12-09T08:16:31.985Z,8.50
2018-12-09T08:19:01.199Z,8.50
2018-12-09T08:21:29.713Z,8.50
2018-12-09T08:23:58.191Z,8.50
2018-12-09T08:26:26.753Z,8.40
2018-12-09T08:28:55.270Z,8.40
2018-12-09T08:31:23.804Z,8.30
2018-12-09T08:33:52.265Z,8.30
2018-12-09T08:36:20.736Z,8.20
2018-12-09T08:38:49.218Z,8.20
2018-12-09T08:41:17.892Z,8.20
2018-12-09T08:43:47.432Z,8.10
2018-12-09T08:46:15.943Z,8.10
2018-12-09T08:48:45.824Z,8.10
2018-12-09T08:51:14.298Z,8.10
2018-12-09T08:53:43.767Z,8.00
2018-12-09T08:56:12.267Z,8.00
2018-12-09T08:58:40.745Z,7.90
2018-12-09T09:01:09.232Z,7.90
2018-12-09T09:03:37.680Z,7.90
2018-12-09T09:06:06.148Z,8.00
2018-12-09T09:08:34.590Z,8.00
2018-12-09T09:11:03.040Z,8.00
2018-12-09T09:13:31.531Z,7.90
2018-12-09T09:15:59.980Z,8.00
2018-12-09T09:18:28.444Z,8.00
2018-12-09T09:20:56.924Z,8.00
2018-12-09T09:23:25.400Z,8.00
2018-12-09T09:25:53.843Z,8.10
2018-12-09T09:28:23.250Z,8.10
2018-12-09T09:30:51.715Z,8.10
2018-12-09T09:33:20.155Z,8.10
2018-12-09T09:35:48.565Z,8.10
2018-12-09T09:38:16.998Z,8.20
2018-12-09T09:40:45.481Z,8.20
2018-12-09T09:43:15.744Z,8.20
2018-12-09T09:45:44.974Z,8.20
2018-12-09T09:48:13.445Z,8.20
2018-12-09T09:50:41.857Z,8.00
2018-12-09T09:53:10.288Z,8.00
2018-12-09T09:55:38.729Z,7.90
2018-12-09T09:58:07.208Z,7.90
2018-12-09T10:00:35.666Z,8.00
2018-12-09T10:03:04.088Z,8.00
2018-12-09T10:05:33.143Z,8.00
2018-12-09T10:08:01.607Z,8.00
2018-12-09T10:10:30.058Z,8.00
2018-12-09T10:12:58.527Z,8.00
2018-12-09T10:15:27.066Z,8.00
2018-12-09T10:17:55.479Z,8.00
2018-12-09T10:20:23.977Z,8.00
2018-12-09T10:22:52.536Z,8.10
2018-12-09T10:25:22.714Z,8.10
2018-12-09T10:27:51.185Z,7.50
2018-12-09T10:30:19.666Z,6.80
2018-12-09T10:32:48.148Z,6.30
2018-12-09T10:35:16.680Z,5.80
2018-12-09T10:37:45.338Z,5.50
2018-12-09T10:40:13.825Z,5.30
2018-12-09T10:42:42.406Z,5.30
2018-12-09T10:45:10.965Z,5.30
2018-12-09T10:47:39.602Z,5.30
2018-12-09T10:50:08.576Z,5.30
2018-12-09T10:52:37.081Z,5.30
2018-12-09T10:55:05.807Z,5.40
2018-12-09T10:57:34.327Z,5.40
2018-12-09T11:00:04.093Z,5.50
2018-12-09T11:02:32.562Z,5.60
2018-12-09T11:05:01.640Z,5.50
2018-12-09T11:07:30.115Z,5.50
2018-12-09T11:09:58.598Z,5.50
2018-12-09T11:12:27.160Z,5.60
2018-12-09T11:14:55.631Z,5.50
2018-12-09T11:17:24.118Z,5.60
2018-12-09T11:19:52.572Z,5.70
2018-12-09T11:22:21.048Z,5.80
2018-12-09T11:24:49.636Z,5.80
2018-12-09T11:27:18.140Z,6.00
2018-12-09T11:29:46.634Z,6.00
2018-12-09T11:32:15.111Z,6.10
2018-12-09T11:34:43.545Z,6.20
2018-12-09T11:37:12.048Z,6.20
2018-12-09T11:39:40.530Z,6.20
2018-12-09T11:42:09.057Z,6.20
2018-12-09T11:44:37.633Z,6.30
2018-12-09T11:47:06.059Z,6.30
2018-12-09T11:49:34.649Z,6.40
2018-12-09T11:52:03.218Z,6.40
2018-12-09T11:54:31.720Z,6.50
2018-12-09T11:57:00.182Z,6.50
2018-12-09T11:59:28.831Z,6.60
2018-12-09T12:01:57.284Z,6.60
2018-12-09T12:04:25.826Z,6.70
2018-12-09T12:06:54.370Z,6.70
2018-12-09T12:09:22.881Z,6.70
2018-12-09T12:11:51.351Z,6.80
2018-12-09T12:14:19.806Z,7.00
2018-12-09T12:16:48.269Z,7.00
2018-12-09T12:19:16.730Z,7.10
2018-12-09T12:21:45.195Z,7.10
2018-12-09T12:24:13.617Z,7.10
2018-12-09T12:26:42.095Z,7.10
2018-12-09T12:29:10.567Z,7.20
2018-12-09T12:31:39.048Z,7.20
2018-12-09T12:34:07.519Z,7.20
2018-12-09T12:36:35.989Z,7.20
2018-12-09T12:39:06.850Z,7.20
2018-12-09T12:41:35.330Z,7.30
2018-12-09T12:44:04.047Z,7.40
2018-12-09T12:46:32.764Z,7.50
2018-12-09T12:49:01.562Z,7.50
2018-12-09T12:51:30.195Z,7.50
2018-12-09T12:53:58.939Z,7.60
2018-12-09T12:56:27.420Z,7.60
2018-12-09T12:58:55.908Z,7.80
2018-12-09T13:01:24.364Z,7.80
2018-12-09T13:03:52.899Z,7.90
2018-12-09T13:06:21.669Z,7.80
2018-12-09T13:08:50.170Z,7.80
2018-12-09T13:11:18.588Z,7.80
2018-12-09T13:13:47.157Z,7.80
2018-12-09T13:16:15.620Z,7.80
2018-12-09T13:18:44.059Z,7.80
2018-12-09T13:21:12.548Z,7.70
2018-12-09T13:23:41.104Z,7.70
2018-12-09T13:26:09.552Z,7.70
2018-12-09T13:28:38.238Z,7.70
2018-12-09T13:31:06.669Z,7.70
2018-12-09T13:33:35.274Z,7.70
2018-12-09T13:36:04.315Z,7.60
2018-12-09T13:38:32.770Z,7.60
2018-12-09T13:41:01.304Z,7.70
2018-12-09T13:43:29.804Z,7.80
2018-12-09T13:45:58.294Z,7.80
2018-12-09T13:48:26.774Z,7.90
2018-12-09T13:50:55.374Z,7.90
2018-12-09T13:53:23.954Z,7.90
2018-12-09T13:55:52.860Z,7.90
2018-12-09T13:58:21.278Z,7.90
2018-12-09T14:00:49.779Z,7.90
2018-12-09T14:03:18.254Z,7.90
2018-12-09T14:05:46.731Z,8.00
2018-12-09T14:08:15.185Z,7.90
2018-12-09T14:10:44.723Z,7.90
2018-12-09T14:13:13.158Z,7.90
2018-12-09T14:15:41.601Z,7.90
2018-12-09T14:18:10.043Z,7.90
2018-12-09T14:20:38.546Z,8.00
2018-12-09T14:23:07.159Z,7.90
2018-12-09T14:25:35.627Z,7.90
2018-12-09T14:28:04.106Z,7.80
2018-12-09T14:30:32.537Z,7.90
2018-12-09T14:33:00.949Z,7.90
2018-12-09T14:35:29.405Z,7.90
2018-12-09T14:37:57.863Z,7.90
2018-12-09T14:40:26.321Z,7.90
2018-12-09T14:42:55.775Z,7.90
2018-12-09T14:45:24.292Z,7.90
2018-12-09T14:47:52.898Z,7.90
2018-12-09T14:50:21.384Z,7.80
2018-12-09T14:52:49.872Z,7.80
2018-12-09T14:55:18.362Z,7.80
2018-12-09T14:57:46.840Z,7.80
2018-12-09T15:00:15.336Z,7.70
2018-12-09T15:02:43.844Z,7.80
2018-12-09T15:05:13.275Z,7.70
2018-12-09T15:07:41.710Z,7.70
2018-12-09T15:10:10.648Z,7.70
2018-12-09T15:12:39.218Z,7.60
2018-12-09T15:15:08.764Z,7.50
2018-12-09T15:17:37.256Z,7.50
2018-12-09T15:20:06.213Z,7.50
2018-12-09T15:22:35.529Z,7.30
2018-12-09T15:25:04.585Z,7.40
2018-12-09T15:27:33.051Z,7.40
2018-12-09T15:30:01.504Z,7.40
2018-12-09T15:32:30.115Z,7.30
2018-12-09T15:34:58.570Z,7.30
2018-12-09T15:37:27.073Z,7.40
2018-12-09T15:39:55.529Z,7.30
2018-12-09T15:42:23.973Z,7.40
2018-12-09T15:44:52.479Z,7.40
2018-12-09T15:47:21.039Z,7.30
2018-12-09T15:49:49.515Z,7.30
2018-12-09T15:52:17.964Z,7.30
2018-12-09T15:54:53.122Z,7.30
2018-12-09T15:57:22.325Z,7.30
2018-12-09T15:59:50.917Z,7.30
2018-12-09T16:02:19.361Z,7.30
2018-12-09T16:04:47.847Z,7.20
2018-12-09T16:07:16.382Z,7.30
2018-12-09T16:09:44.989Z,7.30
2018-12-09T16:12:14.257Z,7.30
2018-12-09T16:14:42.985Z,7.30
2018-12-09T16:17:11.495Z,7.30
2018-12-09T16:19:40.040Z,7.30
2018-12-09T16:22:08.561Z,7.30
2018-12-09T16:24:37.573Z,7.30
2018-12-09T16:27:06.053Z,7.30
2018-12-09T16:29:34.531Z,7.30
2018-12-09T16:32:03.067Z,7.20
2018-12-09T16:34:34.439Z,7.30
2018-12-09T16:37:04.153Z,7.30
2018-12-09T16:39:32.727Z,7.30
2018-12-09T16:42:01.259Z,7.20
2018-12-09T16:44:29.711Z,7.20
2018-12-09T16:46:58.249Z,7.10
2018-12-09T16:49:26.749Z,7.10
2018-12-09T16:51:55.175Z,7.00
2018-12-09T16:54:23.653Z,6.90
2018-12-09T16:56:52.156Z,6.80
2018-12-09T16:59:20.625Z,6.80
2018-12-09T17:01:49.135Z,6.80
2018-12-09T17:04:17.713Z,6.80
2018-12-09T17:06:46.268Z,6.70
2018-12-09T17:09:14.823Z,6.60
2018-12-09T17:11:43.314Z,6.60
2018-12-09T17:14:11.727Z,6.60
2018-12-09T17:16:40.165Z,6.50
2018-12-09T17:19:08.650Z,6.60
2018-12-09T17:21:37.320Z,6.60
2018-12-09T17:24:06.162Z,6.50
2018-12-09T17:26:34.637Z,6.50
2018-12-09T17:29:05.464Z,6.50
2018-12-09T17:31:34.422Z,6.50
2018-12-09T17:34:02.967Z,6.50
2018-12-09T17:36:31.483Z,6.50
2018-12-09T17:38:59.970Z,6.60
2018-12-09T17:41:28.520Z,6.60
2018-12-09T17:43:57.051Z,6.70
2018-12-09T17:46:25.539Z,6.70
2018-12-09T17:48:54.092Z,6.70
2018-12-09T17:51:22.605Z,6.70
2018-12-09T17:53:51.497Z,6.80
2018-12-09T17:56:19.966Z,6.80
2018-12-09T17:58:48.443Z,6.80
2018-12-09T18:01:18.319Z,6.80
2018-12-09T18:03:46.826Z,6.80
2018-12-09T18:06:15.421Z,6.80
2018-12-09T18:08:44.169Z,6.80
2018-12-09T18:11:12.680Z,6.90
2018-12-09T18:13:41.213Z,6.90
2018-12-09T18:16:09.943Z,6.80
2018-12-09T18:18:38.436Z,6.80
2018-12-09T18:21:07.660Z,6.80
2018-12-09T18:23:36.212Z,6.80
2018-12-09T18:26:04.845Z,6.80
2018-12-09T18:28:33.422Z,6.90
2018-12-09T18:31:02.115Z,6.80
2018-12-09T18:33:30.683Z,6.80
2018-12-09T18:35:59.317Z,6.80
2018-12-09T18:38:28.108Z,6.90
2018-12-09T18:40:56.636Z,6.90
2018-12-09T18:43:25.897Z,6.90
2018-12-09T18:45:54.428Z,6.90
2018-12-09T18:48:24.035Z,6.90
2018-12-09T18:50:52.563Z,6.90
2018-12-09T18:53:21.150Z,6.90
2018-12-09T18:55:49.795Z,6.90
2018-12-09T18:58:18.452Z,6.90
2018-12-09T19:00:46.952Z,6.90
2018-12-09T19:03:15.542Z,6.90
2018-12-09T19:05:44.774Z,6.90
2018-12-09T19:08:13.287Z,6.80
2018-12-09T19:10:41.901Z,6.90
2018-12-09T19:13:11.176Z,6.90
2018-12-09T19:15:39.822Z,6.80
2018-12-09T19:18:08.417Z,6.70
2018-12-09T19:20:36.863Z,6.70
2018-12-09T19:23:05.324Z,6.70
2018-12-09T19:25:33.827Z,6.70
2018-12-09T19:28:02.423Z,6.70
2018-12-09T19:30:30.988Z,6.60
2018-12-09T19:32:59.462Z,6.70
2018-12-09T19:35:28.879Z,6.60
2018-12-09T19:37:57.335Z,6.60
2018-12-09T19:40:25.832Z,6.60
2018-12-09T19:42:54.283Z,6.60
2018-12-09T19:45:23.655Z,6.70
2018-12-09T19:47:52.206Z,6.60
2018-12-09T19:50:20.713Z,6.70
2018-12-09T19:52:49.148Z,6.60
2018-12-09T19:55:17.648Z,6.60
2018-12-09T19:57:46.146Z,6.60
2018-12-09T20:00:14.683Z,6.60
2018-12-09T20:02:43.257Z,6.60
2018-12-09T20:05:12.448Z,6.60
2018-12-09T20:07:41.014Z,6.60
2018-12-09T20:10:09.878Z,6.60
2018-12-09T20:12:38.385Z,6.60
2018-12-09T20:15:08.334Z,6.60
2018-12-09T20:17:36.983Z,6.50
2018-12-09T20:20:08.432Z,6.60
2018-12-09T20:22:37.178Z,6.60
2018-12-09T20:25:05.988Z,6.60
2018-12-09T20:27:34.483Z,6.60
2018-12-09T20:30:03.405Z,6.60
2018-12-09T20:32:35.139Z,6.60
2018-12-09T20:35:02.421Z,6.60
2018-12-09T20:37:31.352Z,6.60
2018-12-09T20:39:59.850Z,6.60
2018-12-09T20:42:28.395Z,6.60
2018-12-09T20:44:56.936Z,6.50
2018-12-09T20:47:25.416Z,6.60
2018-12-09T20:49:53.894Z,6.60
2018-12-09T20:52:22.321Z,6.50
2018-12-09T20:54:50.799Z,6.50
2018-12-09T20:57:19.325Z,6.50
2018-12-09T20:59:47.798Z,6.40
2018-12-09T21:02:16.227Z,6.40
2018-12-09T21:04:44.674Z,6.30
2018-12-09T21:07:13.165Z,6.30
2018-12-09T21:09:41.642Z,6.30
2018-12-09T21:12:10.070Z,6.30
2018-12-09T21:14:38.462Z,6.30
2018-12-09T21:17:07.031Z,6.30
2018-12-09T21:19:35.499Z,6.40
2018-12-09T21:22:03.969Z,6.40
2018-12-09T21:24:32.505Z,6.40
2018-12-09T21:27:01.007Z,6.40
2018-12-09T21:29:29.449Z,6.40
2018-12-09T21:31:57.944Z,6.40
2018-12-09T21:34:26.543Z,6.40
2018-12-09T21:36:55.854Z,6.50
2018-12-09T21:39:24.320Z,6.50
2018-12-09T21:41:52.745Z,6.50
2018-12-09T21:44:21.245Z,6.50
